Time;durP1;ratioP1;P1;durP2;ratioP2;P2;SDS_P1;SDS_P2;PMS_P1;PMS_P2;Temp;Humidity;BMP_temperature;BMP_pressure;BME280_temperature;BME280_humidity;BME280_pressure;Samples;Min_cycle;Max_cycle;Signal;HPM_P1;HPM_P2
2022/09/28 00:01:20;;;;;;;7.70;5.27;;;;;;;10.05;89.33;94985.55;1755590;80;21414;-89
2022/09/28 00:03:47;;;;;;;5.45;3.20;;;;;;;10.06;89.91;94980.66;1769515;81;21043;-88
2022/09/28 00:06:17;;;;;;;4.65;4.00;;;;;;;10.01;90.03;94983.89;1785739;80;20951;-89
2022/09/28 00:08:43;;;;;;;4.53;3.20;;;;;;;9.94;89.93;94987.05;1765541;80;21021;-90
2022/09/28 00:11:11;;;;;;;5.53;4.10;;;;;;;9.89;89.18;94985.58;1786314;80;21330;-89
2022/09/28 00:13:37;;;;;;;4.33;3.40;;;;;;;9.83;88.73;94978.64;1764275;80;20966;-89
2022/09/28 00:16:12;;;;;;;6.25;4.00;;;;;;;9.80;88.84;94980.38;1786280;80;21032;-90
2022/09/28 00:18:38;;;;;;;3.75;2.30;;;;;;;9.80;89.26;94975.18;1782508;80;21366;-89
2022/09/28 00:21:15;;;;;;;3.90;2.33;;;;;;;9.76;88.36;94976.11;1778910;80;20939;-89
2022/09/28 00:26:30;;;;;;;2.85;1.98;;;;;;;9.70;89.01;94978.73;1766997;80;20989;-89
2022/09/28 00:28:58;;;;;;;3.08;2.00;;;;;;;9.66;88.56;94982.76;1775521;80;21350;-90
2022/09/28 00:31:27;;;;;;;2.98;2.10;;;;;;;9.63;88.54;94980.08;1746678;80;21056;-88
2022/09/28 00:33:55;;;;;;;3.55;1.90;;;;;;;9.61;88.32;94979.50;1741358;81;21423;-89
2022/09/28 00:36:22;;;;;;;3.10;2.60;;;;;;;9.59;88.16;94983.58;1738932;81;20999;-90
2022/09/28 00:38:48;;;;;;;5.20;3.17;;;;;;;9.57;88.18;94979.61;1763304;80;20918;-90
2022/09/28 00:41:14;;;;;;;3.55;2.10;;;;;;;9.54;88.36;94979.53;1755735;79;20945;-89
2022/09/28 00:43:40;;;;;;;2.08;1.87;;;;;;;9.54;88.94;94983.92;1756134;81;20965;-90
2022/09/28 00:46:17;;;;;;;2.45;1.70;;;;;;;9.53;89.19;94978.44;1768412;80;21028;-90
2022/09/28 00:48:56;;;;;;;2.35;1.85;;;;;;;9.49;89.37;94978.07;1769615;80;20962;-89
2022/09/28 00:51:22;;;;;;;2.30;1.60;;;;;;;9.48;89.44;94976.48;1748003;80;21343;-89
2022/09/28 00:53:48;;;;;;;3.05;1.47;;;;;;;9.42;89.32;94972.11;1794389;80;21001;-88
2022/09/28 00:56:17;;;;;;;1.60;1.20;;;;;;;9.39;89.39;94967.85;1769230;80;21017;-90
2022/09/28 00:58:46;;;;;;;2.85;1.30;;;;;;;9.35;89.34;94968.78;1769330;80;21392;-90
2022/09/28 01:01:12;;;;;;;2.22;1.57;;;;;;;9.31;89.51;94973.59;1769713;80;21358;-90
2022/09/28 01:03:44;;;;;;;2.50;1.40;;;;;;;9.26;89.79;94977.78;1766899;81;20960;-89
2022/09/28 01:06:08;;;;;;;2.87;2.00;;;;;;;9.21;90.03;94975.03;1769531;80;20984;-89
2022/09/28 01:08:34;;;;;;;2.35;1.50;;;;;;;9.19;90.11;94978.33;1739678;81;21026;-89
2022/09/28 01:11:00;;;;;;;2.85;1.67;;;;;;;9.14;90.06;94970.39;1774475;80;20938;-89
2022/09/28 01:13:25;;;;;;;3.40;1.57;;;;;;;9.10;90.20;94971.78;1768483;79;20918;-89
2022/09/28 01:16:09;;;;;;;4.95;1.70;;;;;;;9.08;90.20;94971.20;1767956;80;20976;-88
2022/09/28 01:19:05;;;;;;;2.75;1.62;;;;;;;9.01;89.96;94971.24;1800354;80;20948;-89
2022/09/28 01:21:45;;;;;;;2.77;1.55;;;;;;;8.94;90.12;94967.36;1725875;81;20984;-89
2022/09/28 01:24:47;;;;;;;2.42;1.57;;;;;;;8.88;90.13;94968.20;1777378;80;21020;-89
2022/09/28 01:27:25;;;;;;;3.50;1.37;;;;;;;8.81;90.16;94964.84;1760997;80;20969;-89
2022/09/28 01:30:10;;;;;;;2.05;1.45;;;;;;;8.75;90.33;94964.85;1786120;80;21365;-89
2022/09/28 01:32:54;;;;;;;2.77;1.45;;;;;;;8.68;90.32;94962.30;1780662;80;20968;-89
2022/09/28 01:35:35;;;;;;;2.00;1.37;;;;;;;8.63;90.28;94967.30;1757161;80;21011;-89
2022/09/28 01:38:17;;;;;;;2.65;1.30;;;;;;;8.62;90.60;94963.09;1762143;80;20936;-90
2022/09/28 01:40:43;;;;;;;3.10;1.30;;;;;;;8.59;90.76;94969.98;1773834;80;20979;-89
2022/09/28 01:43:27;;;;;;;2.58;1.52;;;;;;;8.57;90.46;94962.92;1769242;80;20942;-89
2022/09/28 01:46:00;;;;;;;3.33;1.50;;;;;;;8.57;90.67;94970.19;1785019;80;21022;-89
2022/09/28 01:48:40;;;;;;;2.00;1.60;;;;;;;8.58;90.51;94965.80;1786105;80;20976;-88
2022/09/28 01:51:11;;;;;;;2.70;1.65;;;;;;;8.57;90.17;94973.27;1744867;80;20981;-89
2022/09/28 01:53:44;;;;;;;3.20;1.82;;;;;;;8.55;89.81;94981.75;1785928;80;20956;-88
2022/09/28 01:56:14;;;;;;;2.87;1.67;;;;;;;8.55;89.63;94977.36;1786047;80;20938;-89
2022/09/28 01:59:08;;;;;;;3.02;1.70;;;;;;;8.55;89.22;94979.16;1783053;80;20936;-89
2022/09/28 02:01:57;;;;;;;2.00;1.47;;;;;;;8.54;88.93;94973.19;1781388;80;21317;-89
2022/09/28 02:04:38;;;;;;;2.40;1.50;;;;;;;8.48;88.51;94979.19;1774746;80;20912;-89
2022/09/28 02:07:26;;;;;;;1.45;1.20;;;;;;;8.45;88.51;94974.89;1765338;80;20973;-90
2022/09/28 02:10:01;;;;;;;2.52;1.10;;;;;;;8.40;88.16;94973.71;1786019;80;21036;-89
2022/09/28 02:12:37;;;;;;;2.42;1.02;;;;;;;8.38;87.99;94971.03;1786264;80;21346;-89
2022/09/28 02:15:20;;;;;;;1.47;1.20;;;;;;;8.41;88.60;94961.56;1786063;80;20957;-89
2022/09/28 02:17:46;;;;;;;1.37;0.85;;;;;;;8.37;88.29;94968.14;1756506;80;20968;-89
2022/09/28 02:20:11;;;;;;;1.40;1.12;;;;;;;8.37;88.04;94959.88;1755148;80;21295;-89
2022/09/28 02:22:49;;;;;;;1.98;0.90;;;;;;;8.36;87.70;94963.97;1761031;80;21072;-89
2022/09/28 02:25:24;;;;;;;1.70;1.07;;;;;;;8.36;87.79;94962.67;1782598;80;21067;-90
2022/09/28 02:28:02;;;;;;;2.40;0.82;;;;;;;8.34;87.80;94952.53;1793719;80;20997;-89
2022/09/28 02:30:29;;;;;;;1.95;0.90;;;;;;;8.35;88.65;94959.80;1794182;80;21074;-89
2022/09/28 02:33:00;;;;;;;1.25;0.80;;;;;;;8.35;88.70;94949.44;1790495;80;20936;-89
2022/09/28 02:35:25;;;;;;;1.80;0.80;;;;;;;8.30;88.06;94959.08;1762835;80;20912;-89
2022/09/28 02:37:51;;;;;;;0.68;0.68;;;;;;;8.26;88.21;94954.49;1779739;80;20965;-89
2022/09/28 02:40:26;;;;;;;0.72;0.70;;;;;;;8.26;87.41;94960.46;1779488;80;20952;-89
2022/09/28 02:43:15;;;;;;;1.95;0.50;;;;;;;8.26;87.19;94964.34;1773465;80;20954;-89
2022/09/28 02:45:59;;;;;;;1.32;0.88;;;;;;;8.27;87.44;94964.64;1793568;80;21389;-88
2022/09/28 02:48:56;;;;;;;0.80;0.60;;;;;;;8.31;87.32;94971.02;1781223;80;20918;-89
2022/09/28 02:51:39;;;;;;;1.40;0.80;;;;;;;8.31;87.42;94968.94;1781221;80;21023;-89
2022/09/28 02:54:25;;;;;;;0.98;0.80;;;;;;;8.29;88.10;94963.94;1772157;79;21000;-89
2022/09/28 02:57:32;;;;;;;0.90;0.80;;;;;;;8.27;86.94;94963.34;1793353;79;21002;-88
2022/09/28 03:00:10;;;;;;;0.82;0.62;;;;;;;8.28;87.04;94964.94;1791819;80;21366;-87
2022/09/28 03:03:13;;;;;;;1.25;0.70;;;;;;;8.25;85.81;94965.34;1784953;79;20994;-89
2022/09/28 03:06:09;;;;;;;0.70;0.65;;;;;;;8.26;86.33;94964.84;1793464;79;21272;-89
2022/09/28 03:08:43;;;;;;;1.10;0.68;;;;;;;8.27;86.91;94959.96;1812921;79;20940;-89
2022/09/28 03:11:22;;;;;;;1.37;0.80;;;;;;;8.26;87.03;94957.88;1781585;80;21012;-89
2022/09/28 03:13:48;;;;;;;0.62;0.53;;;;;;;8.26;87.54;94953.99;1759116;80;21015;-89
2022/09/28 03:16:16;;;;;;;0.80;0.80;;;;;;;8.23;86.82;94951.02;1802495;79;21355;-87
2022/09/28 03:18:42;;;;;;;1.05;0.88;;;;;;;8.20;86.49;94951.42;1782963;79;20940;-89
2022/09/28 03:21:10;;;;;;;1.07;0.98;;;;;;;8.17;86.88;94953.92;1783293;79;20979;-89
2022/09/28 03:23:35;;;;;;;2.05;0.93;;;;;;;8.16;86.93;94968.36;1806990;79;20975;-89
2022/09/28 03:26:02;;;;;;;1.57;1.10;;;;;;;8.16;86.65;94959.30;1788791;79;21414;-90
2022/09/28 03:28:29;;;;;;;1.12;0.95;;;;;;;8.16;86.66;94958.01;1800969;79;21263;-89
2022/09/28 03:30:54;;;;;;;0.75;0.75;;;;;;;8.18;86.66;94965.86;1788894;79;21004;-89
2022/09/28 03:33:21;;;;;;;1.50;1.20;;;;;;;8.20;86.77;94962.57;1797928;79;21339;-89
2022/09/28 03:35:49;;;;;;;1.25;0.80;;;;;;;8.22;86.37;94961.08;1794680;79;20983;-89
2022/09/28 03:38:17;;;;;;;1.05;0.80;;;;;;;8.24;85.87;94969.42;1807440;79;21051;-89
2022/09/28 03:40:45;;;;;;;2.20;1.30;;;;;;;8.24;85.91;94976.69;1798465;79;20988;-89
2022/09/28 03:43:11;;;;;;;2.72;1.05;;;;;;;8.26;86.09;94979.07;1790811;79;20935;-88
2022/09/28 03:45:37;;;;;;;1.72;1.10;;;;;;;8.24;85.75;94988.33;1795240;79;21342;-89
2022/09/28 03:48:03;;;;;;;54.53;35.10;;;;;;;8.23;85.62;94986.74;1797965;79;21040;-89
2022/09/28 03:50:28;;;;;;;5.60;3.40;;;;;;;8.21;85.58;94991.83;1800980;79;20933;-88
2022/09/28 03:52:54;;;;;;;1.98;1.42;;;;;;;8.23;85.65;94993.22;1789952;79;21011;-88
2022/09/28 03:55:20;;;;;;;3.80;1.72;;;;;;;8.22;85.28;94994.21;1818773;79;21485;-85
2022/09/28 03:57:54;;;;;;;4.80;2.15;;;;;;;8.23;85.20;94985.95;1802951;79;20920;-84
2022/09/28 04:00:20;;;;;;;21.00;9.08;;;;;;;8.25;84.99;94987.84;1815610;79;21536;-84
2022/09/28 04:02:46;;;;;;;3.52;1.70;;;;;;;8.28;85.23;94987.42;1808655;79;20954;-85
2022/09/28 04:05:12;;;;;;;2.12;1.20;;;;;;;8.30;84.90;94982.38;1785727;79;20931;-83
2022/09/28 04:07:37;;;;;;;1.00;0.90;;;;;;;8.31;85.29;94979.28;1797462;79;20952;-85
2022/09/28 04:10:03;;;;;;;1.92;0.90;;;;;;;8.33;86.26;94979.88;1817012;79;20995;-84
2022/09/28 04:12:29;;;;;;;1.07;0.72;;;;;;;8.32;86.05;94980.88;1815612;79;20967;-85
2022/09/28 04:14:55;;;;;;;1.47;0.80;;;;;;;8.29;85.58;94974.78;1803650;79;20900;-85
2022/09/28 04:17:20;;;;;;;1.35;0.98;;;;;;;8.26;85.11;94973.40;1807910;79;21993;-84
2022/09/28 04:19:46;;;;;;;1.07;0.88;;;;;;;8.25;85.03;94982.16;1785126;79;21277;-85
2022/09/28 04:22:13;;;;;;;0.93;0.85;;;;;;;8.25;84.79;94974.40;1790678;79;21422;-84
2022/09/28 04:24:40;;;;;;;1.45;0.90;;;;;;;8.26;85.04;94978.58;1784735;79;20968;-85
2022/09/28 04:29:50;;;;;;;3.37;0.85;;;;;;;8.22;84.18;94970.92;1796203;79;21063;-85
2022/09/28 04:32:16;;;;;;;1.20;0.90;;;;;;;8.20;84.44;94973.42;1795912;79;21071;-84
2022/09/28 04:34:42;;;;;;;1.05;0.78;;;;;;;8.22;84.89;94962.37;1807980;79;20935;-84
2022/09/28 04:37:07;;;;;;;1.30;0.88;;;;;;;8.22;85.12;94957.19;1793635;79;21010;-84
2022/09/28 04:39:33;;;;;;;1.95;1.00;;;;;;;8.18;84.57;94957.30;1798566;79;20995;-85
2022/09/28 04:42:00;;;;;;;0.72;0.65;;;;;;;8.18;85.52;94952.92;1817347;79;20955;-84
2022/09/28 04:44:25;;;;;;;1.50;0.90;;;;;;;8.15;84.56;94962.88;1778951;80;21381;-84
2022/09/28 04:46:51;;;;;;;1.77;1.10;;;;;;;8.11;84.61;94961.17;1778202;79;21018;-85
2022/09/28 04:49:17;;;;;;;1.45;1.20;;;;;;;8.07;84.72;94960.78;1758331;79;20963;-85
2022/09/28 04:51:43;;;;;;;1.15;0.90;;;;;;;8.07;85.20;94957.41;1795489;79;21146;-84
2022/09/28 04:54:09;;;;;;;1.32;0.80;;;;;;;8.07;84.82;94962.58;1771075;80;20975;-84
2022/09/28 04:56:35;;;;;;;3.15;0.90;;;;;;;8.06;84.79;94968.75;1793308;79;21370;-85
2022/09/28 04:59:01;;;;;;;1.62;0.90;;;;;;;8.07;85.28;94965.96;1784715;79;21037;-84
2022/09/28 05:01:29;;;;;;;1.00;0.90;;;;;;;8.06;85.08;94968.25;1783833;79;21961;-85
2022/09/28 05:03:55;;;;;;;1.00;0.70;;;;;;;8.05;85.04;94973.62;1777640;79;20991;-84
2022/09/28 05:06:21;;;;;;;1.00;0.90;;;;;;;8.04;85.06;94977.21;1789705;79;21417;-85
2022/09/28 05:08:47;;;;;;;0.88;0.80;;;;;;;8.03;85.00;94980.80;1771169;79;20983;-84
2022/09/28 05:11:13;;;;;;;1.22;1.00;;;;;;;8.04;84.97;94983.18;1773327;79;21334;-84
2022/09/28 05:13:42;;;;;;;1.05;0.95;;;;;;;8.06;84.66;94984.27;1771208;80;20978;-84
2022/09/28 05:16:09;;;;;;;1.02;0.90;;;;;;;8.08;84.91;94984.86;1797662;79;20991;-85
2022/09/28 05:18:35;;;;;;;0.98;0.85;;;;;;;8.09;84.46;94986.45;1807994;79;20972;-84
2022/09/28 05:21:01;;;;;;;0.90;0.85;;;;;;;8.09;84.70;94983.37;1807325;79;20996;-85
2022/09/28 05:23:27;;;;;;;1.10;0.90;;;;;;;8.09;84.83;94979.98;1802102;79;21301;-84
2022/09/28 05:25:53;;;;;;;1.17;0.93;;;;;;;8.07;84.79;94971.63;1777730;79;21004;-85
2022/09/28 05:28:23;;;;;;;1.80;0.95;;;;;;;8.11;84.62;94987.05;1725234;82;21359;-85
2022/09/28 05:30:49;;;;;;;0.98;0.70;;;;;;;8.11;84.07;94983.95;1757864;80;20993;-85
2022/09/28 05:33:15;;;;;;;1.30;0.80;;;;;;;8.15;84.18;94971.94;1736708;81;21007;-84
2022/09/28 05:35:41;;;;;;;1.55;0.70;;;;;;;8.17;84.02;94982.38;1756917;81;20999;-85
2022/09/28 05:38:06;;;;;;;0.98;0.70;;;;;;;8.19;84.12;94976.50;1746097;80;21075;-84
2022/09/28 05:40:32;;;;;;;0.60;0.60;;;;;;;8.20;83.71;94978.59;1761520;80;20933;-85
2022/09/28 05:43:00;;;;;;;1.60;0.72;;;;;;;8.19;83.85;94982.97;1736538;82;20902;-84
2022/09/28 05:45:27;;;;;;;1.60;0.80;;;;;;;8.20;83.67;94992.33;1709684;82;20937;-85
2022/09/28 05:47:53;;;;;;;0.80;0.80;;;;;;;8.21;83.31;94991.33;1767173;80;21350;-84
2022/09/28 05:50:19;;;;;;;1.85;1.05;;;;;;;8.23;83.23;94984.16;1762448;81;20939;-85
2022/09/28 05:52:45;;;;;;;0.70;0.70;;;;;;;8.25;83.42;94987.84;1769122;80;20989;-85
2022/09/28 05:55:11;;;;;;;1.00;0.78;;;;;;;8.24;83.43;94988.33;1733800;82;21039;-85
2022/09/28 05:57:37;;;;;;;1.00;0.85;;;;;;;8.23;83.17;94979.48;1755204;80;22002;-85
2022/09/28 06:00:08;;;;;;;1.02;0.90;;;;;;;8.23;83.26;94969.92;1757230;81;20940;-84
2022/09/28 06:02:34;;;;;;;0.70;0.70;;;;;;;8.26;82.99;94975.98;1767246;81;20970;-85
2022/09/28 06:05:00;;;;;;;0.75;0.62;;;;;;;8.28;82.88;94968.81;1749430;81;21270;-85
2022/09/28 06:07:25;;;;;;;0.88;0.80;;;;;;;8.29;82.52;94969.61;1758624;80;21458;-84
2022/09/28 06:09:52;;;;;;;0.98;0.70;;;;;;;8.28;82.82;94967.52;1752375;81;20921;-85
2022/09/28 06:12:18;;;;;;;1.10;0.80;;;;;;;8.29;82.71;94974.28;1767652;80;21010;-85
2022/09/28 06:14:45;;;;;;;2.05;1.00;;;;;;;8.29;82.67;94972.20;1767877;81;21006;-84
2022/09/28 06:17:11;;;;;;;1.40;0.70;;;;;;;8.32;82.55;94977.79;1767455;81;21006;-85
2022/09/28 06:19:37;;;;;;;1.47;1.02;;;;;;;8.35;82.29;94976.12;1767662;81;21330;-85
2022/09/28 06:22:04;;;;;;;1.37;0.60;;;;;;;8.38;81.60;94982.67;1767352;81;21021;-83
2022/09/28 06:24:29;;;;;;;0.85;0.80;;;;;;;8.39;81.93;94982.47;1779245;80;21361;-84
2022/09/28 06:26:55;;;;;;;0.90;0.80;;;;;;;8.42;81.69;94980.77;1760010;80;21014;-84
2022/09/28 06:29:21;;;;;;;0.72;0.68;;;;;;;8.42;81.57;94989.83;1807659;79;21429;-84
2022/09/28 06:31:47;;;;;;;0.70;0.70;;;;;;;8.43;81.51;94981.56;1783244;80;21322;-84
2022/09/28 06:34:13;;;;;;;1.17;0.70;;;;;;;8.43;81.30;94981.06;1773510;80;21000;-85
2022/09/28 06:36:39;;;;;;;1.90;1.60;;;;;;;8.47;80.21;94987.16;1782980;80;21362;-84
2022/09/28 06:39:05;;;;;;;1.92;0.72;;;;;;;8.47;80.36;94976.80;1790657;80;20939;-84
2022/09/28 06:41:31;;;;;;;1.15;0.60;;;;;;;8.48;80.10;94981.77;1783793;80;21350;-85
2022/09/28 06:43:56;;;;;;;1.70;0.62;;;;;;;8.51;80.55;94984.45;1800547;80;21331;-84
2022/09/28 06:46:22;;;;;;;1.98;1.17;;;;;;;8.54;80.08;94980.16;1780634;80;20995;-85
2022/09/28 06:48:48;;;;;;;1.00;0.65;;;;;;;8.60;80.56;94990.98;1759635;80;20995;-84
2022/09/28 06:51:15;;;;;;;0.60;0.60;;;;;;;8.66;80.61;94986.31;1769084;80;21341;-85
2022/09/28 06:53:41;;;;;;;1.90;0.93;;;;;;;8.76;81.02;94994.43;1769011;80;20920;-85
2022/09/28 06:56:10;;;;;;;1.17;0.70;;;;;;;8.84;80.23;94985.16;1771215;80;21457;-85
2022/09/28 06:58:36;;;;;;;1.37;0.80;;;;;;;8.88;80.27;94986.33;1773907;79;21041;-84
2022/09/28 07:01:02;;;;;;;0.85;0.70;;;;;;;8.90;79.41;94975.26;1788423;80;21025;-85
2022/09/28 07:03:28;;;;;;;1.47;0.90;;;;;;;8.88;80.01;94972.58;1786127;80;20955;-84
2022/09/28 07:05:54;;;;;;;1.10;1.00;;;;;;;8.92;80.32;94970.66;1768078;80;20928;-85
2022/09/28 07:08:24;;;;;;;0.57;0.50;;;;;;;8.95;80.07;94975.96;1775743;79;21000;-85
2022/09/28 07:10:55;;;;;;;1.02;0.70;;;;;;;8.95;78.99;94983.23;1800048;79;20963;-85
2022/09/28 07:13:23;;;;;;;1.10;0.65;;;;;;;8.96;79.74;94982.73;1768954;80;20981;-84
2022/09/28 07:15:55;;;;;;;1.37;0.68;;;;;;;8.99;79.79;94981.02;1761460;80;20942;-85
2022/09/28 07:18:22;;;;;;;0.82;0.60;;;;;;;9.10;79.23;94993.31;1806620;79;20995;-85
2022/09/28 07:20:48;;;;;;;0.80;0.62;;;;;;;9.18;79.86;94991.00;1797010;80;20998;-85
2022/09/28 07:23:14;;;;;;;1.10;0.70;;;;;;;9.26;78.56;94995.93;1777012;80;20936;-84
2022/09/28 07:25:44;;;;;;;0.70;0.60;;;;;;;9.32;79.16;94995.91;1763322;80;21008;-84
2022/09/28 07:28:08;;;;;;;1.45;0.55;;;;;;;9.40;78.55;94997.95;1745007;81;21365;-85
2022/09/28 07:30:34;;;;;;;0.95;0.65;;;;;;;9.48;78.34;95001.11;1761938;80;21033;-85
2022/09/28 07:33:01;;;;;;;0.88;0.60;;;;;;;9.57;78.02;94997.76;1786127;80;21392;-85
2022/09/28 07:35:27;;;;;;;0.90;0.62;;;;;;;9.65;77.14;95005.80;1780744;80;20931;-85
2022/09/28 07:38:03;;;;;;;1.30;0.68;;;;;;;9.68;76.30;95003.59;1781086;80;20963;-85
2022/09/28 07:43:19;;;;;;;0.88;0.60;;;;;;;9.77;77.00;95004.14;1780282;80;20984;-85
2022/09/28 07:45:42;;;;;;;1.05;0.82;;;;;;;9.78;76.68;95010.41;1763326;80;20968;-85
2022/09/28 07:48:08;;;;;;;1.35;0.90;;;;;;;9.78;76.98;95009.63;1775401;80;20973;-84
2022/09/28 07:50:33;;;;;;;2.00;0.72;;;;;;;9.81;77.29;94998.82;1786179;80;20926;-84
2022/09/28 07:52:59;;;;;;;1.90;1.20;;;;;;;9.85;77.28;94992.20;1785434;80;20974;-85
2022/09/28 07:55:25;;;;;;;1.42;0.90;;;;;;;9.93;78.42;94990.16;1785745;80;21071;-84
2022/09/28 07:58:00;;;;;;;0.95;0.60;;;;;;;10.04;77.66;94991.25;1762276;80;21377;-85
2022/09/28 08:00:28;;;;;;;1.10;0.57;;;;;;;10.10;76.47;94983.14;1768293;80;20981;-84
2022/09/28 08:02:54;;;;;;;1.20;0.60;;;;;;;10.14;76.61;94986.89;1783373;80;20936;-85
2022/09/28 08:05:20;;;;;;;0.80;0.80;;;;;;;10.17;76.39;94987.25;1764100;80;21319;-85
2022/09/28 08:07:46;;;;;;;1.00;0.62;;;;;;;10.20;76.22;94983.43;1786298;80;21024;-85
2022/09/28 08:10:11;;;;;;;3.50;1.10;;;;;;;10.21;75.36;94983.25;1764325;80;21411;-85
2022/09/28 08:12:40;;;;;;;0.82;0.70;;;;;;;10.24;76.54;94971.64;1785127;80;20978;-85
2022/09/28 08:15:09;;;;;;;1.52;0.80;;;;;;;10.31;77.05;94974.98;1780565;80;20966;-84
2022/09/28 08:17:34;;;;;;;12.47;5.90;;;;;;;10.38;77.35;94974.91;1764480;79;20959;-85
2022/09/28 08:22:44;;;;;;;3.05;2.00;;;;;;;10.43;76.68;94968.59;1763948;80;21038;-85
2022/09/28 08:25:10;;;;;;;5.45;2.52;;;;;;;10.45;75.75;94970.47;1755279;80;21027;-85
2022/09/28 08:27:37;;;;;;;3.10;2.08;;;;;;;10.43;75.62;94974.58;1782374;79;21029;-85
2022/09/28 08:30:03;;;;;;;1.72;0.90;;;;;;;10.44;76.16;94972.77;1774564;79;20976;-85
2022/09/28 08:32:29;;;;;;;1.75;0.90;;;;;;;10.45;74.63;94974.36;1790442;79;21314;-85
2022/09/28 08:34:56;;;;;;;2.05;1.00;;;;;;;10.44;75.52;94980.06;1771086;79;21029;-84
2022/09/28 08:37:22;;;;;;;1.55;0.80;;;;;;;10.49;75.63;94972.91;1780944;79;21332;-85
2022/09/28 08:39:48;;;;;;;2.67;1.20;;;;;;;10.51;76.08;94976.88;1802100;79;20935;-85
2022/09/28 08:42:37;;;;;;;2.87;1.60;;;;;;;10.55;76.48;94970.75;1781543;79;21068;-85
2022/09/28 08:45:10;;;;;;;0.93;0.70;;;;;;;10.61;76.55;94972.50;1793985;79;20980;-85
2022/09/28 08:50:53;;;;;;;1.90;1.32;;;;;;;10.77;76.25;94969.33;1775331;79;21446;-84
2022/09/28 08:53:48;;;;;;;3.52;2.10;;;;;;;10.87;76.38;94970.10;1771413;80;21426;-85
2022/09/28 08:56:32;;;;;;;1.67;1.00;;;;;;;10.98;76.58;94966.78;1782131;79;20992;-85
2022/09/28 08:59:02;;;;;;;1.37;0.72;;;;;;;11.04;75.12;94977.59;1778223;79;20991;-85
2022/09/28 09:01:36;;;;;;;1.80;0.93;;;;;;;11.06;74.19;94981.27;1805645;79;20935;-85
2022/09/28 09:04:03;;;;;;;1.30;0.98;;;;;;;11.07;74.18;94974.58;1802081;79;20979;-85
2022/09/28 09:06:48;;;;;;;1.17;0.75;;;;;;;11.12;73.84;94972.62;1760303;80;21353;-85
2022/09/28 09:09:32;;;;;;;2.27;0.80;;;;;;;11.15;73.80;94980.48;1761824;80;20927;-85
2022/09/28 09:12:35;;;;;;;1.07;0.90;;;;;;;11.21;73.81;94979.59;1792430;79;21379;-84
2022/09/28 09:15:46;;;;;;;1.12;0.60;;;;;;;11.22;73.75;94972.88;1797165;79;20908;-85
2022/09/28 09:18:42;;;;;;;1.37;0.68;;;;;;;11.19;72.21;94977.22;1761679;80;20958;-85
2022/09/28 09:21:19;;;;;;;1.50;0.80;;;;;;;11.12;72.29;94982.51;1791628;79;20944;-85
2022/09/28 09:23:56;;;;;;;2.35;0.70;;;;;;;11.15;71.72;94970.87;1807281;79;21058;-85
2022/09/28 09:26:38;;;;;;;0.62;0.55;;;;;;;11.21;71.49;94972.59;1804935;79;21120;-85
2022/09/28 09:29:22;;;;;;;1.30;0.60;;;;;;;11.29;72.38;94971.00;1798387;79;20932;-84
2022/09/28 09:32:19;;;;;;;1.20;0.70;;;;;;;11.32;71.97;94973.16;1810093;79;21051;-85
2022/09/28 09:35:00;;;;;;;1.35;0.65;;;;;;;11.29;72.18;94958.50;1782530;79;20948;-85
2022/09/28 09:37:55;;;;;;;2.20;0.90;;;;;;;11.20;71.55;94964.50;1787802;79;20987;-85
2022/09/28 09:40:40;;;;;;;1.77;1.00;;;;;;;11.14;72.00;94960.19;1791977;79;21011;-85
2022/09/28 09:43:40;;;;;;;1.32;0.70;;;;;;;11.05;72.12;94958.39;1782620;79;20963;-85
2022/09/28 09:46:17;;;;;;;0.98;0.80;;;;;;;10.99;72.63;94963.17;1788935;79;20942;-85
2022/09/28 09:48:57;;;;;;;0.98;0.57;;;;;;;11.03;73.00;94964.31;1795883;79;21024;-85
2022/09/28 09:51:34;;;;;;;1.30;0.60;;;;;;;11.02;72.22;94969.22;1790969;79;21333;-85
2022/09/28 09:54:03;;;;;;;1.35;0.65;;;;;;;11.05;72.19;94955.78;1814429;79;21373;-85
2022/09/28 09:56:40;;;;;;;0.70;0.50;;;;;;;11.10;73.03;94955.16;1814188;79;21018;-85
2022/09/28 09:59:21;;;;;;;2.02;0.60;;;;;;;11.09;72.47;94964.75;1804514;79;20951;-85
2022/09/28 10:01:47;;;;;;;1.37;0.60;;;;;;;11.14;72.46;94954.99;1796961;79;20987;-85
2022/09/28 10:04:34;;;;;;;0.88;0.50;;;;;;;11.15;72.13;94955.28;1782407;79;21397;-84
2022/09/28 10:07:05;;;;;;;1.45;0.57;;;;;;;11.17;72.13;94939.45;1782419;79;20979;-85
2022/09/28 10:09:38;;;;;;;2.00;0.80;;;;;;;11.24;72.07;94951.38;1805008;79;20936;-85
2022/09/28 10:12:11;;;;;;;1.42;0.60;;;;;;;11.30;72.57;94949.18;1784353;79;20920;-85
2022/09/28 10:14:36;;;;;;;0.80;0.62;;;;;;;11.31;72.37;94959.08;1805743;79;21325;-85
2022/09/28 10:17:02;;;;;;;1.42;0.78;;;;;;;11.38;72.60;94958.47;1797251;79;20967;-84
2022/09/28 10:19:31;;;;;;;1.52;0.72;;;;;;;11.48;72.72;94959.24;1800323;79;20912;-85
2022/09/28 10:22:00;;;;;;;1.82;0.90;;;;;;;11.55;72.81;94951.65;1811569;79;20967;-85
2022/09/28 10:24:37;;;;;;;1.37;0.90;;;;;;;11.66;72.89;94958.67;1814384;79;20952;-85
2022/09/28 10:27:10;;;;;;;1.80;0.80;;;;;;;11.79;72.76;94958.23;1790349;79;21039;-85
2022/09/28 10:30:01;;;;;;;2.27;0.90;;;;;;;11.87;72.66;94944.36;1795921;79;20979;-85
2022/09/28 10:32:37;;;;;;;2.05;0.82;;;;;;;11.96;72.50;94945.63;1756996;79;20992;-85
2022/09/28 10:35:25;;;;;;;2.10;1.05;;;;;;;12.10;73.20;94949.33;1783543;79;20975;-86
2022/09/28 10:38:16;;;;;;;2.40;0.88;;;;;;;12.21;72.31;94955.85;1772726;79;21253;-85
2022/09/28 10:40:54;;;;;;;1.82;0.80;;;;;;;12.32;72.47;94939.92;1782471;80;20936;-85
2022/09/28 10:43:50;;;;;;;1.85;0.80;;;;;;;12.42;71.55;94937.55;1782723;79;20959;-85
2022/09/28 10:46:22;;;;;;;1.75;0.90;;;;;;;12.52;71.39;94920.81;1782765;79;21025;-85
2022/09/28 10:49:02;;;;;;;1.62;0.80;;;;;;;12.68;71.04;94921.92;1805466;79;20975;-85
2022/09/28 10:51:53;;;;;;;3.33;0.98;;;;;;;12.81;72.25;94922.19;1807437;79;20983;-85
2022/09/28 10:54:19;;;;;;;1.17;0.55;;;;;;;12.87;71.54;94916.86;1813452;79;21006;-85
2022/09/28 10:56:45;;;;;;;2.87;0.80;;;;;;;12.93;71.23;94913.31;1814309;79;21068;-85
2022/09/28 10:59:31;;;;;;;1.77;0.78;;;;;;;13.00;70.83;94909.25;1812860;79;21009;-84
2022/09/28 11:02:22;;;;;;;0.80;0.50;;;;;;;13.03;70.98;94904.11;1801956;79;21013;-86
2022/09/28 11:04:59;;;;;;;1.42;0.53;;;;;;;13.04;69.38;94904.39;1808469;79;20940;-85
2022/09/28 11:07:27;;;;;;;1.32;0.68;;;;;;;13.01;68.23;94900.41;1798255;79;21325;-85
2022/09/28 11:09:53;;;;;;;1.67;0.70;;;;;;;13.11;69.43;94891.99;1808101;79;21346;-86
2022/09/28 11:12:30;;;;;;;0.70;0.40;;;;;;;13.22;69.15;94900.32;1776256;79;20937;-85
2022/09/28 11:15:01;;;;;;;1.10;0.60;;;;;;;13.40;68.77;94892.80;1797621;79;20948;-85
2022/09/28 11:17:39;;;;;;;;;;;;;;;13.64;68.69;94893.45;1792308;80;21061;-85
2022/09/28 11:20:28;;;;;;;1.00;0.45;;;;;;;13.77;66.51;94884.00;1746142;80;20108;-84
2022/09/28 11:22:59;;;;;;;0.82;0.30;;;;;;;13.89;66.99;94885.23;1769161;80;20983;-85
2022/09/28 11:25:27;;;;;;;0.62;0.40;;;;;;;14.05;66.69;94887.83;1765679;79;20940;-84
2022/09/28 11:27:59;;;;;;;1.47;0.57;;;;;;;14.18;65.05;94893.77;1784580;79;21001;-85
2022/09/28 11:30:49;;;;;;;0.53;0.40;;;;;;;14.24;65.41;94884.44;1764419;80;21036;-85
2022/09/28 11:33:19;;;;;;;2.00;0.50;;;;;;;14.32;65.95;94894.48;1757786;80;20914;-85
2022/09/28 11:35:52;;;;;;;0.90;0.60;;;;;;;14.47;66.39;94877.44;1737159;81;21026;-85
2022/09/28 11:38:33;;;;;;;1.40;1.07;;;;;;;14.68;63.27;94891.84;1755195;82;20971;-85
2022/09/28 11:41:27;;;;;;;1.75;0.50;;;;;;;14.81;64.94;94895.13;1730893;81;21045;-85
2022/09/28 11:44:20;;;;;;;1.10;0.53;;;;;;;14.93;63.44;94891.33;1741801;80;21029;-86
2022/09/28 11:47:20;;;;;;;1.10;0.50;;;;;;;15.00;63.99;94895.88;1769360;80;20998;-85
2022/09/28 11:50:05;;;;;;;0.60;0.40;;;;;;;14.93;63.35;94893.95;1740360;81;20967;-85
2022/09/28 11:52:36;;;;;;;2.35;0.50;;;;;;;15.05;63.50;94892.52;1739203;80;21013;-86
2022/09/28 11:55:31;;;;;;;0.70;0.50;;;;;;;15.05;63.35;94876.81;1760440;80;20997;-85
2022/09/28 11:58:13;;;;;;;0.80;0.50;;;;;;;15.17;63.02;94880.61;1738684;81;20985;-85
2022/09/28 12:00:46;;;;;;;1.12;0.50;;;;;;;15.06;63.50;94875.78;1776405;80;21411;-85
2022/09/28 12:03:20;;;;;;;1.50;0.60;;;;;;;14.88;62.73;94873.49;1790169;80;21291;-85
2022/09/28 12:05:58;;;;;;;1.00;0.53;;;;;;;14.74;62.82;94878.30;1733826;80;21352;-85
2022/09/28 12:08:29;;;;;;;0.78;0.50;;;;;;;14.64;63.24;94865.09;1749014;80;21458;-85
2022/09/28 12:11:12;;;;;;;1.07;0.50;;;;;;;14.53;63.38;94852.96;1769280;81;20895;-86
2022/09/28 12:13:43;;;;;;;1.20;0.55;;;;;;;14.47;62.60;94853.91;1724850;80;21007;-85
2022/09/28 12:16:17;;;;;;;1.00;0.60;;;;;;;14.39;64.23;94848.06;1757265;81;21357;-86
2022/09/28 12:19:02;;;;;;;1.98;0.55;;;;;;;14.36;64.68;94845.14;1760533;80;21618;-85